sensor_id;sensor_type;location;lat;lon;timestamp;pressure;altitude;pressure_sealevel;temperature;humidity
50394;BME280;36308;46.312;25.288;2023-02-28T00:01:21;96866.53;;;3.21;75.10
50394;BME280;36308;46.312;25.288;2023-02-28T00:03:46;96854.75;;;3.09;75.58
50394;BME280;36308;46.312;25.288;2023-02-28T00:06:12;96878.38;;;3.19;75.35
50394;BME280;36308;46.312;25.288;2023-02-28T00:08:38;96870.22;;;3.20;75.27
50394;BME280;36308;46.312;25.288;2023-02-28T00:11:05;96857.91;;;3.19;75.92
50394;BME280;36308;46.312;25.288;2023-02-28T00:13:33;96857.91;;;3.19;75.33
50394;BME280;36308;46.312;25.288;2023-02-28T00:16:10;96867.91;;;3.17;75.43
50394;BME280;36308;46.312;25.288;2023-02-28T00:18:36;96869.56;;;3.18;75.72
50394;BME280;36308;46.312;25.288;2023-02-28T00:21:02;96869.75;;;3.17;75.29
50394;BME280;36308;46.312;25.288;2023-02-28T00:23:28;96860.34;;;3.14;75.87
50394;BME280;36308;46.312;25.288;2023-02-28T00:25:53;96865.25;;;3.17;75.37
50394;BME280;36308;46.312;25.288;2023-02-28T00:28:19;96866.28;;;3.16;75.35
50394;BME280;36308;46.312;25.288;2023-02-28T00:30:45;96863.63;;;3.16;75.87
50394;BME280;36308;46.312;25.288;2023-02-28T00:33:11;96866.47;;;3.15;75.22
50394;BME280;36308;46.312;25.288;2023-02-28T00:35:37;96868.31;;;3.14;75.62
50394;BME280;36308;46.312;25.288;2023-02-28T00:38:02;96865.66;;;3.14;75.83
50394;BME280;36308;46.312;25.288;2023-02-28T00:40:28;96862.38;;;3.12;75.84
50394;BME280;36308;46.312;25.288;2023-02-28T00:42:54;96864.00;;;3.13;75.94
50394;BME280;36308;46.312;25.288;2023-02-28T00:45:19;96860.69;;;3.11;75.65
50394;BME280;36308;46.312;25.288;2023-02-28T00:47:45;96855.38;;;3.11;75.95
50394;BME280;36308;46.312;25.288;2023-02-28T00:50:11;96858.03;;;3.11;75.22
50394;BME280;36308;46.312;25.288;2023-02-28T00:52:37;96860.69;;;3.11;75.42
50394;BME280;36308;46.312;25.288;2023-02-28T00:55:03;96858.25;;;3.10;75.46
50394;BME280;36308;46.312;25.288;2023-02-28T00:57:28;96848.00;;;3.07;75.73
50394;BME280;36308;46.312;25.288;2023-02-28T00:59:54;96864.75;;;3.07;75.26
50394;BME280;36308;46.312;25.288;2023-02-28T01:02:21;96861.09;;;3.08;75.95
50394;BME280;36308;46.312;25.288;2023-02-28T01:04:47;96868.44;;;3.06;75.23
50394;BME280;36308;46.312;25.288;2023-02-28T01:07:12;96868.63;;;3.04;75.46
50394;BME280;36308;46.312;25.288;2023-02-28T01:09:40;96863.50;;;3.03;75.36
50394;BME280;36308;46.312;25.288;2023-02-28T01:12:07;96859.84;;;3.04;75.83
50394;BME280;36308;46.312;25.288;2023-02-28T01:14:32;96861.84;;;3.02;76.08
50394;BME280;36308;46.312;25.288;2023-02-28T01:16:59;96862.66;;;3.02;75.55
50394;BME280;36308;46.312;25.288;2023-02-28T01:19:25;96872.88;;;2.99;75.95
50394;BME280;36308;46.312;25.288;2023-02-28T01:21:50;96872.88;;;2.99;76.03
50394;BME280;36308;46.312;25.288;2023-02-28T01:24:16;96865.91;;;2.98;75.64
50394;BME280;36308;46.312;25.288;2023-02-28T01:26:41;96872.03;;;2.98;75.46
50394;BME280;36308;46.312;25.288;2023-02-28T01:29:07;96865.91;;;2.98;75.37
50394;BME280;36308;46.312;25.288;2023-02-28T01:31:32;96859.13;;;2.95;76.04
50394;BME280;36308;46.312;25.288;2023-02-28T01:33:58;96850.53;;;2.93;75.65
50394;BME280;36308;46.312;25.288;2023-02-28T01:36:24;96860.13;;;2.94;75.47
50394;BME280;36308;46.312;25.288;2023-02-28T01:38:51;96870.75;;;2.94;75.41
50394;BME280;36308;46.312;25.288;2023-02-28T01:41:29;96868.69;;;2.90;75.50
50394;BME280;36308;46.312;25.288;2023-02-28T01:44:04;96870.34;;;2.91;75.54
50394;BME280;36308;46.312;25.288;2023-02-28T01:46:32;96875.66;;;2.91;75.71
50394;BME280;36308;46.312;25.288;2023-02-28T01:51:46;96870.53;;;2.89;76.11
50394;BME280;36308;46.312;25.288;2023-02-28T01:54:24;96872.72;;;2.86;75.47
50394;BME280;36308;46.312;25.288;2023-02-28T01:57:01;96876.00;;;2.88;75.70
50394;BME280;36308;46.312;25.288;2023-02-28T01:59:36;96883.97;;;2.88;75.46
50394;BME280;36308;46.312;25.288;2023-02-28T02:02:04;96879.69;;;2.87;75.40
50394;BME280;36308;46.312;25.288;2023-02-28T02:04:37;96878.41;;;2.82;75.48
50394;BME280;36308;46.312;25.288;2023-02-28T02:07:04;96883.34;;;2.86;75.58
50394;BME280;36308;46.312;25.288;2023-02-28T02:09:30;96880.06;;;2.83;75.73
50394;BME280;36308;46.312;25.288;2023-02-28T02:11:56;96882.06;;;2.81;75.73
50394;BME280;36308;46.312;25.288;2023-02-28T02:14:36;96877.16;;;2.78;75.73
50394;BME280;36308;46.312;25.288;2023-02-28T02:30:48;96896.28;;;2.74;75.78
50394;BME280;36308;46.312;25.288;2023-02-28T02:36:18;96893.19;;;2.70;75.78
50394;BME280;36308;46.312;25.288;2023-02-28T02:38:50;96892.97;;;2.72;75.72
50394;BME280;36308;46.312;25.288;2023-02-28T02:44:24;96889.91;;;2.68;76.13
50394;BME280;36308;46.312;25.288;2023-02-28T02:46:59;96894.38;;;2.68;75.77
50394;BME280;36308;46.312;25.288;2023-02-28T02:49:31;96897.03;;;2.68;75.69
50394;BME280;36308;46.312;25.288;2023-02-28T02:52:02;96886.78;;;2.65;75.93
50394;BME280;36308;46.312;25.288;2023-02-28T02:54:31;96891.91;;;2.66;76.18
50394;BME280;36308;46.312;25.288;2023-02-28T02:57:04;96890.44;;;2.63;75.97
50394;BME280;36308;46.312;25.288;2023-02-28T02:59:30;96887.59;;;2.65;75.85
50394;BME280;36308;46.312;25.288;2023-02-28T03:02:03;96879.00;;;2.63;75.70
50394;BME280;36308;46.312;25.288;2023-02-28T03:04:33;96884.94;;;2.65;75.57
50394;BME280;36308;46.312;25.288;2023-02-28T03:07:00;96882.47;;;2.63;76.50
50394;BME280;36308;46.312;25.288;2023-02-28T03:09:26;96887.34;;;2.60;76.10
50394;BME280;36308;46.312;25.288;2023-02-28T03:11:54;96894.28;;;2.61;75.74
50394;BME280;36308;46.312;25.288;2023-02-28T03:33:10;96891.56;;;2.54;75.88
50394;BME280;36308;46.312;25.288;2023-02-28T03:36:19;96896.88;;;2.54;76.65
50394;BME280;36308;46.312;25.288;2023-02-28T03:38:45;96899.34;;;2.56;76.06
50394;BME280;36308;46.312;25.288;2023-02-28T03:41:19;96891.56;;;2.54;76.32
50394;BME280;36308;46.312;25.288;2023-02-28T03:43:53;96885.44;;;2.54;75.88
50394;BME280;36308;46.312;25.288;2023-02-28T03:46:19;96888.72;;;2.56;76.55
50394;BME280;36308;46.312;25.288;2023-02-28T03:48:57;96881.75;;;2.55;76.07
50394;BME280;36308;46.312;25.288;2023-02-28T03:51:28;96869.88;;;2.51;75.99
50394;BME280;36308;46.312;25.288;2023-02-28T03:53:58;96876.66;;;2.53;75.91
50394;BME280;36308;46.312;25.288;2023-02-28T03:56:38;96881.13;;;2.53;75.91
50394;BME280;36308;46.312;25.288;2023-02-28T04:01:42;96892.78;;;2.52;76.06
50394;BME280;36308;46.312;25.288;2023-02-28T04:04:09;96891.09;;;2.51;76.15
50394;BME280;36308;46.312;25.288;2023-02-28T04:06:36;96895.59;;;2.50;76.47
50394;BME280;36308;46.312;25.288;2023-02-28T04:09:03;96899.91;;;2.51;76.35
50394;BME280;36308;46.312;25.288;2023-02-28T04:13:57;96902.75;;;2.50;76.79
50394;BME280;36308;46.312;25.288;2023-02-28T04:16:23;96902.09;;;2.48;76.76
50394;BME280;36308;46.312;25.288;2023-02-28T04:18:48;96910.72;;;2.50;76.61
50394;BME280;36308;46.312;25.288;2023-02-28T04:21:14;96908.06;;;2.50;76.94
50394;BME280;36308;46.312;25.288;2023-02-28T04:23:39;96900.09;;;2.50;76.57
50394;BME280;36308;46.312;25.288;2023-02-28T04:26:05;96901.72;;;2.51;76.43
50394;BME280;36308;46.312;25.288;2023-02-28T04:28:32;96901.72;;;2.51;76.86
50394;BME280;36308;46.312;25.288;2023-02-28T04:31:00;96892.47;;;2.47;77.12
50394;BME280;36308;46.312;25.288;2023-02-28T04:33:26;96899.28;;;2.49;76.33
50394;BME280;36308;46.312;25.288;2023-02-28T04:35:59;96902.56;;;2.51;76.25
50394;BME280;36308;46.312;25.288;2023-02-28T04:38:25;96906.03;;;2.52;76.82
50394;BME280;36308;46.312;25.288;2023-02-28T04:40:51;96898.44;;;2.49;77.10
50394;BME280;36308;46.312;25.288;2023-02-28T04:43:16;96900.09;;;2.50;76.74
50394;BME280;36308;46.312;25.288;2023-02-28T04:45:42;96907.41;;;2.48;76.80
50394;BME280;36308;46.312;25.288;2023-02-28T04:48:07;96912.72;;;2.48;75.95
50394;BME280;36308;46.312;25.288;2023-02-28T04:50:33;96902.47;;;2.45;76.61
50394;BME280;36308;46.312;25.288;2023-02-28T04:52:58;96911.06;;;2.47;76.30
50394;BME280;36308;46.312;25.288;2023-02-28T04:55:23;96907.78;;;2.45;75.77
50394;BME280;36308;46.312;25.288;2023-02-28T04:57:49;96918.38;;;2.45;76.22
50394;BME280;36308;46.312;25.288;2023-02-28T05:00:15;96916.75;;;2.43;76.13
50394;BME280;36308;46.312;25.288;2023-02-28T05:02:42;96921.44;;;2.41;75.88
50394;BME280;36308;46.312;25.288;2023-02-28T05:05:08;96911.81;;;2.40;76.00
50394;BME280;36308;46.312;25.288;2023-02-28T05:07:33;96925.06;;;2.40;76.62
50394;BME280;36308;46.312;25.288;2023-02-28T05:09:59;96924.44;;;2.38;76.17
50394;BME280;36308;46.312;25.288;2023-02-28T05:12:24;96933.41;;;2.37;76.00
50394;BME280;36308;46.312;25.288;2023-02-28T05:14:50;96925.00;;;2.34;75.57
50394;BME280;36308;46.312;25.288;2023-02-28T05:17:16;96928.84;;;2.31;75.67
50394;BME280;36308;46.312;25.288;2023-02-28T05:19:41;96921.88;;;2.30;76.21
50394;BME280;36308;46.312;25.288;2023-02-28T05:22:13;96933.69;;;2.28;75.71
50394;BME280;36308;46.312;25.288;2023-02-28T05:24:39;96931.41;;;2.25;76.24
50394;BME280;36308;46.312;25.288;2023-02-28T05:27:04;96928.28;;;2.21;75.32
50394;BME280;36308;46.312;25.288;2023-02-28T05:29:30;96933.59;;;2.21;76.28
50394;BME280;36308;46.312;25.288;2023-02-28T05:31:55;96928.84;;;2.16;76.12
50394;BME280;36308;46.312;25.288;2023-02-28T05:34:20;96927.38;;;2.14;75.41
50394;BME280;36308;46.312;25.288;2023-02-28T05:36:46;96939.63;;;2.15;75.94
50394;BME280;36308;46.312;25.288;2023-02-28T05:39:12;96948.59;;;2.14;75.43
50394;BME280;36308;46.312;25.288;2023-02-28T05:41:41;96948.97;;;2.11;75.30
50394;BME280;36308;46.312;25.288;2023-02-28T05:44:07;96951.78;;;2.09;75.55
50394;BME280;36308;46.312;25.288;2023-02-28T05:46:33;96946.69;;;2.08;75.74
50394;BME280;36308;46.312;25.288;2023-02-28T05:48:58;96946.84;;;2.06;75.55
50394;BME280;36308;46.312;25.288;2023-02-28T05:51:25;96956.66;;;2.06;75.61
50394;BME280;36308;46.312;25.288;2023-02-28T05:53:51;96956.19;;;2.02;75.56
50394;BME280;36308;46.312;25.288;2023-02-28T05:56:16;96962.78;;;2.06;75.64
50394;BME280;36308;46.312;25.288;2023-02-28T05:58:42;96957.81;;;2.03;75.77
50394;BME280;36308;46.312;25.288;2023-02-28T06:01:34;96968.25;;;2.05;76.01
50394;BME280;36308;46.312;25.288;2023-02-28T06:04:19;96955.81;;;2.05;76.27
50394;BME280;36308;46.312;25.288;2023-02-28T06:06:48;96958.44;;;2.05;75.74
50394;BME280;36308;46.312;25.288;2023-02-28T06:09:14;96956.66;;;2.06;76.57
50394;BME280;36308;46.312;25.288;2023-02-28T06:11:41;96961.09;;;2.05;76.20
50394;BME280;36308;46.312;25.288;2023-02-28T06:14:07;96961.94;;;2.06;76.04
50394;BME280;36308;46.312;25.288;2023-02-28T06:16:34;96964.41;;;2.07;76.33
50394;BME280;36308;46.312;25.288;2023-02-28T06:19:03;96966.88;;;2.09;76.10
50394;BME280;36308;46.312;25.288;2023-02-28T06:21:29;96957.94;;;2.10;75.82
50394;BME280;36308;46.312;25.288;2023-02-28T06:23:56;96958.75;;;2.10;76.33
50394;BME280;36308;46.312;25.288;2023-02-28T06:26:21;96964.88;;;2.11;76.18
50394;BME280;36308;46.312;25.288;2023-02-28T06:28:47;96968.97;;;2.13;76.46
50394;BME280;36308;46.312;25.288;2023-02-28T06:31:15;96973.94;;;2.16;75.86
50394;BME280;36308;46.312;25.288;2023-02-28T06:33:42;96977.03;;;2.20;76.57
50394;BME280;36308;46.312;25.288;2023-02-28T06:36:10;96982.00;;;2.23;76.47
50394;BME280;36308;46.312;25.288;2023-02-28T06:38:37;96975.31;;;2.27;76.67
50394;BME280;36308;46.312;25.288;2023-02-28T06:41:03;96969.28;;;2.33;76.71
50394;BME280;36308;46.312;25.288;2023-02-28T06:43:31;96970.56;;;2.37;76.28
50394;BME280;36308;46.312;25.288;2023-02-28T06:45:59;96966.53;;;2.41;76.09
50394;BME280;36308;46.312;25.288;2023-02-28T06:48:26;96962.53;;;2.46;76.13
50394;BME280;36308;46.312;25.288;2023-02-28T06:50:52;96962.78;;;2.51;76.39
50394;BME280;36308;46.312;25.288;2023-02-28T06:53:18;96957.75;;;2.56;76.22
50394;BME280;36308;46.312;25.288;2023-02-28T06:55:43;96956.19;;;2.61;75.73
50394;BME280;36308;46.312;25.288;2023-02-28T06:58:09;96961.94;;;2.65;75.83
50394;BME280;36308;46.312;25.288;2023-02-28T07:00:43;96946.09;;;2.72;75.66
50394;BME280;36308;46.312;25.288;2023-02-28T07:03:10;96958.28;;;2.81;76.36
50394;BME280;36308;46.312;25.288;2023-02-28T07:05:37;96967.13;;;2.88;75.55
50394;BME280;36308;46.312;25.288;2023-02-28T07:08:03;96950.38;;;2.88;76.13
50394;BME280;36308;46.312;25.288;2023-02-28T07:10:29;96965.09;;;3.05;76.20
50394;BME280;36308;46.312;25.288;2023-02-28T07:12:55;96971.31;;;3.12;75.93
50394;BME280;36308;46.312;25.288;2023-02-28T07:15:20;96973.47;;;3.23;75.35
50394;BME280;36308;46.312;25.288;2023-02-28T07:17:46;96988.13;;;3.34;75.58
50394;BME280;36308;46.312;25.288;2023-02-28T07:20:12;96980.44;;;3.46;75.84
50394;BME280;36308;46.312;25.288;2023-02-28T07:22:37;96972.16;;;3.56;75.41
50394;BME280;36308;46.312;25.288;2023-02-28T07:25:04;96969.44;;;3.71;75.74
50394;BME280;36308;46.312;25.288;2023-02-28T07:27:30;96963.16;;;3.78;74.94
50394;BME280;36308;46.312;25.288;2023-02-28T07:29:56;96979.28;;;3.98;74.33
50394;BME280;36308;46.312;25.288;2023-02-28T07:32:22;96975.69;;;4.13;74.64
50394;BME280;36308;46.312;25.288;2023-02-28T07:34:48;96984.16;;;4.23;73.61
50394;BME280;36308;46.312;25.288;2023-02-28T07:37:14;96984.28;;;4.36;73.33
50394;BME280;36308;46.312;25.288;2023-02-28T07:39:39;96993.16;;;4.50;73.03
50394;BME280;36308;46.312;25.288;2023-02-28T07:42:07;96981.78;;;4.63;72.59
50394;BME280;36308;46.312;25.288;2023-02-28T07:44:35;96989.63;;;4.78;72.71
50394;BME280;36308;46.312;25.288;2023-02-28T07:47:09;96994.00;;;4.92;72.24
50394;BME280;36308;46.312;25.288;2023-02-28T07:49:36;96995.50;;;5.08;72.37
50394;BME280;36308;46.312;25.288;2023-02-28T07:52:05;96989.19;;;5.22;71.86
50394;BME280;36308;46.312;25.288;2023-02-28T07:54:32;96989.88;;;5.38;71.62
50394;BME280;36308;46.312;25.288;2023-02-28T07:56:58;97001.81;;;5.55;71.03
50394;BME280;36308;46.312;25.288;2023-02-28T07:59:23;96990.31;;;5.68;69.72
50394;BME280;36308;46.312;25.288;2023-02-28T08:01:49;96996.09;;;5.85;69.24
50394;BME280;36308;46.312;25.288;2023-02-28T08:04:18;96985.47;;;5.98;69.07
50394;BME280;36308;46.312;25.288;2023-02-28T08:06:44;96990.81;;;6.12;68.63
50394;BME280;36308;46.312;25.288;2023-02-28T08:09:09;96979.09;;;6.26;68.55
50394;BME280;36308;46.312;25.288;2023-02-28T08:11:35;96981.75;;;6.39;68.18
50394;BME280;36308;46.312;25.288;2023-02-28T08:14:01;96973.72;;;6.53;68.04
50394;BME280;36308;46.312;25.288;2023-02-28T08:16:27;96971.81;;;6.73;68.53
50394;BME280;36308;46.312;25.288;2023-02-28T08:18:53;96965.56;;;6.93;67.44
50394;BME280;36308;46.312;25.288;2023-02-28T08:21:20;96968.38;;;7.11;67.02
50394;BME280;36308;46.312;25.288;2023-02-28T08:23:50;96964.22;;;7.28;66.82
50394;BME280;36308;46.312;25.288;2023-02-28T08:26:17;96953.59;;;7.47;66.11
50394;BME280;36308;46.312;25.288;2023-02-28T08:28:42;96949.38;;;7.64;66.06
50394;BME280;36308;46.312;25.288;2023-02-28T08:31:11;96954.81;;;7.83;66.31
50394;BME280;36308;46.312;25.288;2023-02-28T08:33:39;96955.28;;;7.98;65.95
50394;BME280;36308;46.312;25.288;2023-02-28T08:36:06;96962.34;;;8.18;65.63
50394;BME280;36308;46.312;25.288;2023-02-28T08:38:31;96961.13;;;8.39;65.31
50394;BME280;36308;46.312;25.288;2023-02-28T08:40:58;96969.00;;;8.59;63.76
50394;BME280;36308;46.312;25.288;2023-02-28T08:43:24;96971.78;;;8.70;63.52
50394;BME280;36308;46.312;25.288;2023-02-28T08:45:54;96967.16;;;8.78;62.56
50394;BME280;36308;46.312;25.288;2023-02-28T08:48:19;96973.88;;;8.87;61.82
50394;BME280;36308;46.312;25.288;2023-02-28T08:50:58;96966.78;;;8.93;61.40
50394;BME280;36308;46.312;25.288;2023-02-28T08:53:24;96964.25;;;8.98;61.84
50394;BME280;36308;46.312;25.288;2023-02-28T08:56:01;96969.78;;;9.03;60.44
50394;BME280;36308;46.312;25.288;2023-02-28T08:58:27;96965.59;;;9.07;60.88
50394;BME280;36308;46.312;25.288;2023-02-28T09:00:53;96963.13;;;9.05;59.68
50394;BME280;36308;46.312;25.288;2023-02-28T09:03:20;96953.44;;;9.04;58.67
50394;BME280;36308;46.312;25.288;2023-02-28T09:05:59;96969.00;;;9.14;58.88
50394;BME280;36308;46.312;25.288;2023-02-28T09:08:28;96972.28;;;9.16;58.31
50394;BME280;36308;46.312;25.288;2023-02-28T09:10:54;96967.97;;;9.15;58.77
50394;BME280;36308;46.312;25.288;2023-02-28T09:13:22;96968.31;;;9.19;58.17
50394;BME280;36308;46.312;25.288;2023-02-28T09:15:48;96965.03;;;9.17;58.30
50394;BME280;36308;46.312;25.288;2023-02-28T09:18:14;96972.41;;;9.21;58.49
50394;BME280;36308;46.312;25.288;2023-02-28T09:20:43;96970.31;;;9.23;58.44
50394;BME280;36308;46.312;25.288;2023-02-28T09:23:10;96978.53;;;9.28;57.87
50394;BME280;36308;46.312;25.288;2023-02-28T09:25:37;96968.16;;;9.32;57.48
50394;BME280;36308;46.312;25.288;2023-02-28T09:28:03;96976.56;;;9.36;58.02
50394;BME280;36308;46.312;25.288;2023-02-28T09:30:29;96979.41;;;9.41;58.21
50394;BME280;36308;46.312;25.288;2023-02-28T09:32:55;96981.63;;;9.44;58.48
50394;BME280;36308;46.312;25.288;2023-02-28T09:35:22;96972.44;;;9.51;58.49
50394;BME280;36308;46.312;25.288;2023-02-28T09:37:49;96983.06;;;9.58;58.21
50394;BME280;36308;46.312;25.288;2023-02-28T09:40:17;96976.78;;;9.64;57.73
50394;BME280;36308;46.312;25.288;2023-02-28T09:42:46;96977.97;;;9.68;58.38
50394;BME280;36308;46.312;25.288;2023-02-28T09:47:48;96972.06;;;9.78;57.90
50394;BME280;36308;46.312;25.288;2023-02-28T09:50:22;96967.88;;;9.82;57.64
50394;BME280;36308;46.312;25.288;2023-02-28T09:52:54;96967.06;;;9.82;56.78
50394;BME280;36308;46.312;25.288;2023-02-28T09:55:42;96971.50;;;9.88;56.97
50394;BME280;36308;46.312;25.288;2023-02-28T10:01:21;96969.91;;;10.10;57.63
50394;BME280;36308;46.312;25.288;2023-02-28T10:03:56;96967.22;;;10.22;57.78
50394;BME280;36308;46.312;25.288;2023-02-28T10:06:36;96969.38;;;10.32;57.39
50394;BME280;36308;46.312;25.288;2023-02-28T10:09:13;96964.34;;;10.47;57.10
50394;BME280;36308;46.312;25.288;2023-02-28T10:11:41;96960.38;;;10.62;56.34
50394;BME280;36308;46.312;25.288;2023-02-28T10:14:19;96953.47;;;10.78;56.55
50394;BME280;36308;46.312;25.288;2023-02-28T10:16:56;96965.13;;;10.95;56.21
50394;BME280;36308;46.312;25.288;2023-02-28T10:19:44;96956.44;;;11.17;56.59
50394;BME280;36308;46.312;25.288;2023-02-28T10:22:49;96955.53;;;11.40;55.52
50394;BME280;36308;46.312;25.288;2023-02-28T10:25:22;96955.94;;;11.60;54.67
50394;BME280;36308;46.312;25.288;2023-02-28T10:27:49;96945.66;;;11.74;54.54
50394;BME280;36308;46.312;25.288;2023-02-28T10:30:18;96942.75;;;11.92;55.05
50394;BME280;36308;46.312;25.288;2023-02-28T10:32:49;96941.78;;;12.16;55.05
50394;BME280;36308;46.312;25.288;2023-02-28T10:35:18;96945.94;;;12.40;54.73
50394;BME280;36308;46.312;25.288;2023-02-28T10:37:49;96937.69;;;12.64;54.11
50394;BME280;36308;46.312;25.288;2023-02-28T10:43:04;96925.31;;;12.90;52.54
50394;BME280;36308;46.312;25.288;2023-02-28T10:45:34;96921.44;;;13.03;52.57
50394;BME280;36308;46.312;25.288;2023-02-28T10:48:05;96929.66;;;13.13;52.33
50394;BME280;36308;46.312;25.288;2023-02-28T10:56:03;96917.78;;;13.36;51.27
50394;BME280;36308;46.312;25.288;2023-02-28T11:01:16;96914.84;;;13.38;48.57
50394;BME280;36308;46.312;25.288;2023-02-28T11:03:42;96899.66;;;13.31;48.20
50394;BME280;36308;46.312;25.288;2023-02-28T11:06:16;96904.41;;;13.24;47.38
50394;BME280;36308;46.312;25.288;2023-02-28T11:08:54;96907.56;;;13.16;48.03
50394;BME280;36308;46.312;25.288;2023-02-28T11:11:20;96901.53;;;13.09;48.22
50394;BME280;36308;46.312;25.288;2023-02-28T11:13:47;96895.53;;;13.02;48.11
50394;BME280;36308;46.312;25.288;2023-02-28T11:16:15;96898.78;;;13.04;48.80
50394;BME280;36308;46.312;25.288;2023-02-28T11:18:53;96902.53;;;13.03;48.99
50394;BME280;36308;46.312;25.288;2023-02-28T11:21:26;96897.66;;;13.00;49.39
50394;BME280;36308;46.312;25.288;2023-02-28T11:24:02;96891.19;;;13.01;49.92
50394;BME280;36308;46.312;25.288;2023-02-28T11:26:40;96887.19;;;13.03;49.65
50394;BME280;36308;46.312;25.288;2023-02-28T11:32:34;96886.34;;;13.03;49.18
50394;BME280;36308;46.312;25.288;2023-02-28T11:34:36;96886.34;;;13.03;48.71
50394;BME280;36308;46.312;25.288;2023-02-28T11:37:03;96883.06;;;13.01;48.64
50394;BME280;36308;46.312;25.288;2023-02-28T11:39:32;96880.91;;;12.98;48.76
50394;BME280;36308;46.312;25.288;2023-02-28T11:56:00;96881.38;;;12.94;49.32
50394;BME280;36308;46.312;25.288;2023-02-28T12:16:06;96878.94;;;12.71;49.45
50394;BME280;36308;46.312;25.288;2023-02-28T12:20:56;96865.41;;;12.66;50.02
50394;BME280;36308;46.312;25.288;2023-02-28T12:23:48;96873.75;;;12.64;50.06
50394;BME280;36308;46.312;25.288;2023-02-28T12:26:41;96870.47;;;12.62;50.35
50394;BME280;36308;46.312;25.288;2023-02-28T12:29:43;96869.66;;;12.62;50.27
50394;BME280;36308;46.312;25.288;2023-02-28T12:32:26;96868.03;;;12.61;50.38
50394;BME280;36308;46.312;25.288;2023-02-28T12:35:10;96850.09;;;12.49;50.67
50394;BME280;36308;46.312;25.288;2023-02-28T12:37:40;96870.16;;;12.59;50.76
50394;BME280;36308;46.312;25.288;2023-02-28T12:40:13;96869.34;;;12.58;50.43
50394;BME280;36308;46.312;25.288;2023-02-28T12:42:52;96867.13;;;12.55;50.35
50394;BME280;36308;46.312;25.288;2023-02-28T12:45:25;96876.06;;;12.56;50.76
50394;BME280;36308;46.312;25.288;2023-02-28T12:47:57;96871.97;;;12.53;50.45
50394;BME280;36308;46.312;25.288;2023-02-28T12:50:26;96877.06;;;12.49;50.55
50394;BME280;36308;46.312;25.288;2023-02-28T12:53:00;96875.91;;;12.45;50.10
50394;BME280;36308;46.312;25.288;2023-02-28T12:58:26;96872.25;;;12.34;50.01
50394;BME280;36308;46.312;25.288;2023-02-28T13:04:14;96873.50;;;12.27;49.93
50394;BME280;36308;46.312;25.288;2023-02-28T13:09:32;96865.41;;;12.27;50.44
50394;BME280;36308;46.312;25.288;2023-02-28T13:11:58;96859.69;;;12.23;50.25
50394;BME280;36308;46.312;25.288;2023-02-28T13:14:30;96864.03;;;12.24;50.24
50394;BME280;36308;46.312;25.288;2023-02-28T13:19:39;96856.19;;;12.23;50.00
50394;BME280;36308;46.312;25.288;2023-02-28T13:22:16;96857.81;;;12.24;50.37
50394;BME280;36308;46.312;25.288;2023-02-28T13:24:52;96854.53;;;12.22;50.49
50394;BME280;36308;46.312;25.288;2023-02-28T13:27:23;96849.16;;;12.22;51.05
50394;BME280;36308;46.312;25.288;2023-02-28T13:29:56;96857.00;;;12.23;50.84
50394;BME280;36308;46.312;25.288;2023-02-28T13:32:33;96856.75;;;12.25;51.04
50394;BME280;36308;46.312;25.288;2023-02-28T13:37:34;96861.06;;;12.26;51.30
50394;BME280;36308;46.312;25.288;2023-02-28T13:47:39;96835.91;;;12.37;51.95
50394;BME280;36308;46.312;25.288;2023-02-28T14:06:24;96838.59;;;12.59;51.02
50394;BME280;36308;46.312;25.288;2023-02-28T14:11:38;96838.44;;;12.66;50.83
50394;BME280;36308;46.312;25.288;2023-02-28T14:14:06;96850.31;;;12.70;51.06
50394;BME280;36308;46.312;25.288;2023-02-28T14:19:19;96833.66;;;12.73;50.85
50394;BME280;36308;46.312;25.288;2023-02-28T14:32:37;96841.28;;;12.81;51.09
50394;BME280;36308;46.312;25.288;2023-02-28T14:37:54;96845.00;;;12.75;51.06
50394;BME280;36308;46.312;25.288;2023-02-28T14:40:40;96849.31;;;12.76;51.24
50394;BME280;36308;46.312;25.288;2023-02-28T14:43:19;96848.19;;;12.72;51.11
50394;BME280;36308;46.312;25.288;2023-02-28T14:45:59;96855.22;;;12.73;51.12
50394;BME280;36308;46.312;25.288;2023-02-28T14:48:26;96848.69;;;12.69;51.37
50394;BME280;36308;46.312;25.288;2023-02-28T14:50:57;96852.47;;;12.68;51.34
50394;BME280;36308;46.312;25.288;2023-02-28T14:53:29;96849.22;;;12.66;50.86
50394;BME280;36308;46.312;25.288;2023-02-28T14:55:56;96845.63;;;12.60;50.76
50394;BME280;36308;46.312;25.288;2023-02-28T14:58:27;96854.47;;;12.56;50.81
50394;BME280;36308;46.312;25.288;2023-02-28T15:00:55;96851.69;;;12.50;50.86
50394;BME280;36308;46.312;25.288;2023-02-28T15:08:26;96849.28;;;12.32;51.25
50394;BME280;36308;46.312;25.288;2023-02-28T15:10:59;96858.94;;;12.28;51.17
50394;BME280;36308;46.312;25.288;2023-02-28T15:13:40;96852.13;;;12.20;51.12
50394;BME280;36308;46.312;25.288;2023-02-28T15:16:34;96854.38;;;12.11;51.44
50394;BME280;36308;46.312;25.288;2023-02-28T15:19:00;96851.63;;;12.06;51.95
50394;BME280;36308;46.312;25.288;2023-02-28T15:21:34;96855.56;;;11.99;52.19
50394;BME280;36308;46.312;25.288;2023-02-28T15:26:57;96855.03;;;11.85;52.14
50394;BME280;36308;46.312;25.288;2023-02-28T15:29:25;96860.59;;;11.78;51.84
50394;BME280;36308;46.312;25.288;2023-02-28T15:32:02;96855.28;;;11.66;52.04
50394;BME280;36308;46.312;25.288;2023-02-28T15:34:35;96861.56;;;11.55;52.37
50394;BME280;36308;46.312;25.288;2023-02-28T15:37:01;96854.03;;;11.40;52.42
50394;BME280;36308;46.312;25.288;2023-02-28T15:39:28;96862.75;;;11.30;53.15
50394;BME280;36308;46.312;25.288;2023-02-28T15:42:18;96864.66;;;11.18;52.79
50394;BME280;36308;46.312;25.288;2023-02-28T15:44:44;96858.50;;;11.06;53.22
50394;BME280;36308;46.312;25.288;2023-02-28T15:47:19;96861.59;;;10.98;53.77
50394;BME280;36308;46.312;25.288;2023-02-28T15:49:57;96862.00;;;10.89;54.61
50394;BME280;36308;46.312;25.288;2023-02-28T15:55:21;96863.78;;;10.72;55.22
50394;BME280;36308;46.312;25.288;2023-02-28T15:57:50;96855.63;;;10.67;54.89